Time;durP1;ratioP1;P1;durP2;ratioP2;P2;SDS_P1;SDS_P2;PMS_P1;PMS_P2;Temp;Humidity;BMP_temperature;BMP_pressure;BME280_temperature;BME280_humidity;BME280_pressure;Samples;Min_cycle;Max_cycle;Signal;HPM_P1;HPM_P2
2022/07/26 00:00:12;;;;;;;15.15;11.75;;;;;;;19.43;81.25;99146.06;4918714;29;20122;-80
2022/07/26 00:02:40;;;;;;;15.52;11.38;;;;;;;19.33;81.36;99123.56;4901959;29;20059;-79
2022/07/26 00:05:17;;;;;;;15.52;11.90;;;;;;;18.66;81.48;99017.03;4918809;29;20059;-79
2022/07/26 00:07:45;;;;;;;16.42;11.65;;;;;;;19.34;81.67;99130.59;4918566;29;20147;-77
2022/07/26 00:10:13;;;;;;;18.02;12.50;;;;;;;19.21;81.75;99119.69;4901827;29;20131;-78
2022/07/26 00:12:40;;;;;;;15.10;11.90;;;;;;;19.21;82.07;99112.59;4918357;29;20047;-79
2022/07/26 00:15:10;;;;;;;16.67;11.55;;;;;;;19.21;81.85;99122.34;4918475;29;20524;-78
2022/07/26 00:17:38;;;;;;;17.80;11.95;;;;;;;19.21;81.96;99115.25;4918260;29;20086;-76
2022/07/26 00:20:06;;;;;;;17.27;11.68;;;;;;;19.18;82.33;99114.50;4900238;29;20483;-80
2022/07/26 00:22:33;;;;;;;16.65;11.93;;;;;;;18.97;82.05;99080.13;4918718;29;20079;-78
2022/07/26 00:25:06;;;;;;;16.10;12.07;;;;;;;19.09;82.12;99106.97;4918546;29;20067;-79
2022/07/26 00:27:35;;;;;;;15.63;11.95;;;;;;;19.17;82.17;99113.66;4918352;29;20064;-78
2022/07/26 00:30:06;;;;;;;;;;;;;;;18.95;82.16;99110.19;4918960;29;20095;-80
2022/07/26 00:32:33;;;;;;;15.63;12.60;;;;;;;19.04;82.44;99115.13;4932440;29;19971;-79
2022/07/26 00:35:00;;;;;;;16.75;11.82;;;;;;;19.02;82.41;99095.81;4917919;29;20450;-78
2022/07/26 00:37:28;;;;;;;15.60;12.57;;;;;;;19.07;82.37;99109.69;4918108;29;20060;-79
2022/07/26 00:39:55;;;;;;;16.40;12.10;;;;;;;19.11;82.67;99118.34;4917960;29;20056;-78
2022/07/26 00:42:22;;;;;;;17.88;12.10;;;;;;;19.11;82.41;99131.59;4926339;29;20115;-77
2022/07/26 00:44:49;;;;;;;18.27;12.63;;;;;;;19.03;82.43;99113.38;4930504;29;20110;-77
2022/07/26 00:47:16;;;;;;;16.02;12.18;;;;;;;19.14;82.41;99140.25;4930549;29;20059;-76
2022/07/26 00:49:43;;;;;;;17.23;12.50;;;;;;;19.12;82.41;99126.25;4923219;29;20060;-78
2022/07/26 00:52:11;;;;;;;17.02;12.68;;;;;;;19.16;82.45;99129.59;4918342;29;20134;-79
2022/07/26 00:54:42;;;;;;;17.00;12.55;;;;;;;19.15;82.43;99131.38;4917991;29;20092;-78
2022/07/26 00:57:10;;;;;;;16.92;12.52;;;;;;;19.17;82.22;99133.97;4917909;29;20060;-76
2022/07/26 00:59:37;;;;;;;17.75;12.75;;;;;;;19.11;82.29;99118.34;4917559;29;20070;-75
2022/07/26 01:02:06;;;;;;;20.08;13.23;;;;;;;19.15;82.24;99130.53;4917119;29;20412;-79
2022/07/26 01:04:34;;;;;;;18.13;12.95;;;;;;;19.07;82.18;99119.41;4917122;29;20475;-77
2022/07/26 01:07:02;;;;;;;17.25;12.48;;;;;;;19.14;82.22;99129.66;4917190;29;20052;-80
2022/07/26 01:09:41;;;;;;;;;;;;;;;18.89;82.39;99123.72;4917925;29;20059;-78
2022/07/26 01:12:08;;;;;;;16.27;13.32;;;;;;;18.96;82.71;99125.16;4916829;29;20017;-78
2022/07/26 01:14:36;;;;;;;16.17;12.48;;;;;;;18.96;82.50;99118.09;4917006;29;20056;-78
2022/07/26 01:17:03;;;;;;;18.20;13.20;;;;;;;18.96;82.54;99114.59;4917067;29;20057;-79
2022/07/26 01:19:30;;;;;;;18.48;12.95;;;;;;;18.94;82.43;99112.00;4917331;29;20070;-76
2022/07/26 01:21:57;;;;;;;17.30;13.02;;;;;;;18.90;82.31;99104.25;4917097;29;20059;-79
2022/07/26 01:24:24;;;;;;;17.88;12.88;;;;;;;19.01;82.67;99126.72;4917270;29;20581;-79
2022/07/26 01:26:51;;;;;;;16.45;13.10;;;;;;;18.94;82.54;99122.56;4916921;29;20502;-78
2022/07/26 01:29:17;;;;;;;18.23;13.55;;;;;;;18.97;82.46;99133.06;4917346;29;20076;-80
2022/07/26 01:31:44;;;;;;;17.20;13.43;;;;;;;18.92;82.66;99124.44;4916716;29;20142;-80
2022/07/26 01:34:11;;;;;;;17.48;13.98;;;;;;;18.83;82.63;99116.88;4900234;29;20048;-77
2022/07/26 01:36:38;;;;;;;19.38;14.10;;;;;;;18.78;82.44;99092.44;4922662;29;20048;-78
2022/07/26 01:39:06;;;;;;;17.73;14.25;;;;;;;19.02;82.55;99130.19;4923336;29;20060;-78
2022/07/26 01:41:32;;;;;;;17.25;13.15;;;;;;;19.03;82.15;99143.34;4917360;29;20514;-78
2022/07/26 01:44:06;;;;;;;16.50;13.32;;;;;;;19.12;82.25;99151.81;4917042;29;20502;-80
2022/07/26 01:46:35;;;;;;;16.40;12.68;;;;;;;19.14;81.93;99149.97;4917038;29;20064;-79
2022/07/26 01:49:02;;;;;;;16.45;13.55;;;;;;;19.10;81.86;99143.09;4916263;29;20453;-80
2022/07/26 01:51:29;;;;;;;20.40;14.00;;;;;;;19.11;81.82;99135.09;4916319;29;20478;-79
2022/07/26 01:53:56;;;;;;;17.45;13.02;;;;;;;19.28;81.47;99155.53;4916529;29;20056;-77
2022/07/26 01:56:23;;;;;;;18.10;13.88;;;;;;;19.28;81.15;99152.91;4916700;29;20110;-81
2022/07/26 01:58:50;;;;;;;16.23;12.85;;;;;;;19.39;80.91;99147.97;4916310;29;20080;-80
2022/07/26 02:01:17;;;;;;;19.25;13.45;;;;;;;19.42;80.84;99149.63;4916341;29;20058;-79
2022/07/26 02:04:04;;;;;;;19.23;13.02;;;;;;;19.55;80.30;99161.44;4916718;29;20138;-78
2022/07/26 02:06:32;;;;;;;17.05;13.30;;;;;;;19.60;79.85;99155.91;4917080;29;20553;-78
2022/07/26 02:09:00;;;;;;;16.13;12.82;;;;;;;19.41;79.82;99117.00;4900023;29;20498;-79
2022/07/26 02:11:27;;;;;;;16.08;13.93;;;;;;;19.50;79.63;99121.03;4916508;29;20091;-78
2022/07/26 02:13:54;;;;;;;16.40;13.05;;;;;;;19.66;79.49;99155.66;4916354;29;20056;-78
2022/07/26 02:16:21;;;;;;;19.80;14.43;;;;;;;19.74;79.28;99157.97;4916449;29;20088;-79
2022/07/26 02:18:48;;;;;;;18.30;13.82;;;;;;;19.60;79.04;99110.88;4916351;29;20052;-79
2022/07/26 02:21:15;;;;;;;20.67;14.38;;;;;;;19.89;78.58;99156.41;4916635;29;20574;-80
2022/07/26 02:23:43;;;;;;;18.52;14.80;;;;;;;19.96;78.35;99160.47;4916349;29;20092;-78
2022/07/26 02:26:10;;;;;;;19.58;14.32;;;;;;;20.02;78.12;99149.59;4916361;29;20066;-78
2022/07/26 02:28:37;;;;;;;19.30;14.85;;;;;;;19.91;77.54;99120.09;4916516;29;20076;-82
2022/07/26 02:31:04;;;;;;;18.45;15.27;;;;;;;20.19;77.20;99154.13;4916436;29;20056;-80
2022/07/26 02:33:31;;;;;;;17.73;14.57;;;;;;;20.41;76.73;99157.47;4916145;29;20052;-79
2022/07/26 02:35:58;;;;;;;18.05;14.23;;;;;;;21.37;73.72;99171.31;4916194;29;20060;-78
2022/07/26 02:38:25;;;;;;;18.60;13.48;;;;;;;23.03;67.93;99155.09;4916264;29;20067;-77
2022/07/26 02:40:51;;;;;;;17.08;12.68;;;;;;;23.39;65.75;99137.84;4916286;29;20058;-81
2022/07/26 02:43:19;;;;;;;16.50;12.50;;;;;;;23.03;66.82;99163.06;4915996;29;20450;-81
2022/07/26 02:45:46;;;;;;;15.55;12.52;;;;;;;23.80;64.19;99139.78;4916130;29;20059;-78
2022/07/26 02:48:29;;;;;;;16.95;12.20;;;;;;;25.16;60.46;99144.34;4916340;29;20056;-80
2022/07/26 02:50:56;;;;;;;13.05;11.43;;;;;;;26.15;57.32;99148.09;4916068;29;20092;-78
2022/07/26 02:53:23;;;;;;;16.02;11.30;;;;;;;27.31;53.96;99151.13;4915803;29;20119;-81
2022/07/26 02:55:50;;;;;;;14.02;11.15;;;;;;;28.34;50.96;99117.97;4916153;29;20094;-80
2022/07/26 02:58:20;;;;;;;13.98;11.32;;;;;;;29.18;48.79;99136.97;4916092;29;20055;-81
2022/07/26 03:00:47;;;;;;;;;;;;;;;29.72;50.63;99156.56;4916256;29;20455;-80
2022/07/26 03:03:14;;;;;;;12.52;10.15;;;;;;;30.23;46.23;99149.41;4916093;29;19938;-79
2022/07/26 03:05:41;;;;;;;13.77;10.32;;;;;;;30.89;44.05;99165.88;4916445;29;20060;-80
2022/07/26 03:08:08;;;;;;;12.55;11.00;;;;;;;31.39;43.04;99170.25;4916078;29;20471;-81
2022/07/26 03:10:35;;;;;;;12.95;10.45;;;;;;;32.19;41.04;99162.63;4916494;29;20089;-78
2022/07/26 03:13:02;;;;;;;14.68;10.27;;;;;;;32.60;40.23;99172.06;4918980;29;20403;-79
2022/07/26 03:15:29;;;;;;;13.00;10.98;;;;;;;32.69;39.33;99159.47;4919164;29;20139;-79
2022/07/26 03:17:56;;;;;;;12.27;10.57;;;;;;;32.92;38.91;99168.00;4919243;29;20048;-79
2022/07/26 03:20:23;;;;;;;11.93;10.73;;;;;;;33.38;37.76;99138.13;4919725;29;20514;-79
2022/07/26 03:22:50;;;;;;;14.70;10.13;;;;;;;34.02;36.92;99166.59;4919338;29;20517;-79
2022/07/26 03:25:17;;;;;;;12.63;10.55;;;;;;;34.14;36.44;99178.06;4919326;29;20079;-79
2022/07/26 03:27:44;;;;;;;12.95;10.00;;;;;;;34.22;35.64;99133.84;4933697;29;20131;-78
2022/07/26 03:30:12;;;;;;;10.25;9.25;;;;;;;34.81;35.10;99186.22;4919577;29;20143;-78
2022/07/26 03:32:39;;;;;;;11.57;9.88;;;;;;;35.17;34.19;99166.97;4919232;29;20052;-79
2022/07/26 03:35:07;;;;;;;11.95;10.45;;;;;;;35.28;34.11;99182.91;4919746;29;20510;-77
2022/07/26 03:37:34;;;;;;;13.60;9.73;;;;;;;35.56;34.04;99189.81;4918856;29;20510;-78
2022/07/26 03:40:14;;;;;;;11.02;9.90;;;;;;;35.92;33.18;99167.69;4920147;29;20048;-79
2022/07/26 03:42:41;;;;;;;13.50;10.00;;;;;;;36.20;32.99;99182.56;4920816;29;20085;-78
2022/07/26 03:45:08;;;;;;;12.30;9.75;;;;;;;36.83;31.49;99177.16;4920010;29;20124;-78
2022/07/26 03:47:36;;;;;;;12.07;10.52;;;;;;;37.13;31.23;99178.16;4921551;29;20064;-78
2022/07/26 03:50:04;;;;;;;11.50;10.05;;;;;;;37.42;30.60;99176.53;4923565;29;20060;-76
2022/07/26 03:52:31;;;;;;;10.93;9.88;;;;;;;37.58;30.24;99172.81;4923692;29;20083;-80
2022/07/26 03:54:59;;;;;;;10.80;9.57;;;;;;;37.60;30.08;99177.06;4923409;29;20062;-79
2022/07/26 03:57:26;;;;;;;11.32;10.23;;;;;;;37.47;29.83;99187.69;4920182;29;20154;-77
2022/07/26 03:59:54;;;;;;;10.07;9.07;;;;;;;37.44;30.37;99180.75;4902402;29;20056;-77
2022/07/26 04:02:25;;;;;;;11.50;10.32;;;;;;;37.24;30.19;99168.72;4920360;29;20080;-79
2022/07/26 04:04:52;;;;;;;11.13;10.02;;;;;;;37.27;30.46;99187.38;4918747;29;20115;-76
2022/07/26 04:07:19;;;;;;;11.20;10.10;;;;;;;37.12;30.64;99186.50;4918691;29;20052;-81
2022/07/26 04:09:47;;;;;;;11.93;10.20;;;;;;;36.47;31.33;99194.00;4918583;29;20055;-78
2022/07/26 04:12:14;;;;;;;12.30;10.23;;;;;;;35.77;33.04;99192.00;4918247;29;20087;-82
2022/07/26 04:14:41;;;;;;;12.70;10.48;;;;;;;34.20;35.58;99187.38;4918478;29;20052;-78
2022/07/26 04:17:11;;;;;;;11.18;9.95;;;;;;;32.22;39.35;99189.31;4918045;29;20151;-78
2022/07/26 04:19:53;;;;;;;13.77;10.70;;;;;;;30.99;41.81;99158.63;4917144;29;20059;-77
2022/07/26 04:22:20;;;;;;;11.48;10.30;;;;;;;30.57;42.93;99193.91;4917941;29;20060;-76
2022/07/26 04:24:47;;;;;;;12.10;10.77;;;;;;;30.18;43.80;99185.69;4917757;29;20056;-76
2022/07/26 04:27:14;;;;;;;12.73;11.40;;;;;;;29.76;45.39;99184.94;4917957;29;20064;-78
2022/07/26 04:29:41;;;;;;;11.30;10.07;;;;;;;29.34;46.15;99183.09;4918415;29;20085;-76
2022/07/26 04:32:08;;;;;;;12.57;11.13;;;;;;;29.11;46.83;99182.34;4918197;29;20115;-78
2022/07/26 04:34:35;;;;;;;11.68;9.80;;;;;;;28.99;47.59;99181.50;4918031;29;20068;-77
2022/07/26 04:37:02;;;;;;;12.32;10.07;;;;;;;28.88;47.40;99167.28;4916902;29;20052;-80
2022/07/26 04:39:29;;;;;;;11.85;10.57;;;;;;;28.93;47.69;99175.78;4924728;29;20532;-78
2022/07/26 04:41:59;;;;;;;11.60;10.02;;;;;;;28.85;48.34;99170.22;4925964;29;20498;-79
2022/07/26 04:44:26;;;;;;;12.13;10.57;;;;;;;28.45;48.37;99141.25;4925294;29;20066;-79
2022/07/26 04:46:53;;;;;;;15.48;10.63;;;;;;;28.18;49.97;99190.88;4926396;29;20147;-78
2022/07/26 04:49:20;;;;;;;12.40;9.95;;;;;;;28.01;50.72;99196.69;4917908;29;20059;-79
2022/07/26 04:51:46;;;;;;;10.68;9.57;;;;;;;28.01;50.80;99194.88;4917473;29;20071;-78
2022/07/26 04:54:19;;;;;;;11.90;10.05;;;;;;;28.13;50.58;99210.00;4916843;29;20146;-79
2022/07/26 04:56:46;;;;;;;10.90;9.77;;;;;;;28.03;50.46;99194.75;4917568;29;20048;-76
2022/07/26 04:59:13;;;;;;;11.27;10.07;;;;;;;27.82;50.62;99198.13;4915861;29;20070;-79
2022/07/26 05:01:47;;;;;;;12.32;9.73;;;;;;;27.68;51.22;99195.69;4917558;29;20059;-78
2022/07/26 05:04:14;;;;;;;13.75;10.75;;;;;;;27.47;51.85;99204.44;4917600;29;20256;-80
2022/07/26 05:06:42;;;;;;;12.68;9.68;;;;;;;27.55;51.76;99195.78;4917334;29;20047;-78
2022/07/26 05:09:09;;;;;;;12.80;10.00;;;;;;;27.46;51.70;99151.75;4917071;29;20078;-79
2022/07/26 05:11:36;;;;;;;11.95;9.35;;;;;;;27.70;51.63;99201.78;4917330;29;20048;-78
2022/07/26 05:14:03;;;;;;;12.73;10.20;;;;;;;27.66;52.14;99192.25;4917005;29;20056;-77
2022/07/26 05:16:30;;;;;;;12.23;9.93;;;;;;;27.52;52.14;99196.03;4917632;29;20107;-76
2022/07/26 05:18:58;;;;;;;11.65;9.63;;;;;;;27.67;51.66;99197.50;4916875;29;20059;-76
2022/07/26 05:21:26;;;;;;;11.05;9.85;;;;;;;27.73;51.66;99201.56;4917140;29;20147;-79
2022/07/26 05:23:54;;;;;;;12.30;9.90;;;;;;;27.92;51.29;99203.66;4917067;29;20064;-79
2022/07/26 05:26:21;;;;;;;12.93;9.65;;;;;;;28.10;51.12;99198.66;4931837;29;20422;-80
2022/07/26 05:28:48;;;;;;;12.55;10.10;;;;;;;28.07;50.53;99197.09;4919804;29;20068;-80
2022/07/26 05:31:15;;;;;;;11.43;10.00;;;;;;;28.10;50.90;99190.63;4922594;29;20071;-78
2022/07/26 05:33:42;;;;;;;11.35;9.93;;;;;;;28.23;50.71;99177.06;4924825;29;20055;-79
2022/07/26 05:36:09;;;;;;;11.40;9.65;;;;;;;28.29;50.17;99188.16;4924324;29;20538;-79
2022/07/26 05:38:37;;;;;;;12.13;10.32;;;;;;;28.31;49.83;99196.94;4917143;29;20091;-80
2022/07/26 05:41:04;;;;;;;13.38;9.90;;;;;;;28.25;50.09;99197.44;4931847;29;20079;-79
2022/07/26 05:43:31;;;;;;;11.07;9.73;;;;;;;28.28;50.18;99185.59;4916730;29;20078;-77
2022/07/26 05:46:08;;;;;;;10.57;9.38;;;;;;;28.40;49.08;99187.28;4901220;29;20060;-79
2022/07/26 05:48:36;;;;;;;13.75;10.00;;;;;;;28.33;49.56;99203.03;4916556;29;20056;-79
2022/07/26 05:51:03;;;;;;;11.77;9.55;;;;;;;28.20;50.06;99202.34;4916491;29;20545;-80
2022/07/26 05:53:30;;;;;;;12.82;9.68;;;;;;;28.33;50.02;99199.47;4916587;29;20055;-79
2022/07/26 05:55:57;;;;;;;11.27;9.80;;;;;;;28.46;49.87;99191.28;4916586;29;20056;-79
2022/07/26 05:58:24;;;;;;;14.48;10.00;;;;;;;28.52;49.88;99188.13;4916615;29;20048;-80
2022/07/26 06:00:51;;;;;;;11.55;9.82;;;;;;;28.44;49.45;99185.19;4916545;29;20055;-80
2022/07/26 06:03:21;;;;;;;11.02;9.73;;;;;;;28.35;49.60;99182.28;4914416;29;20059;-80
2022/07/26 06:05:50;;;;;;;10.77;9.68;;;;;;;28.27;49.37;99146.31;4914283;29;20052;-80
2022/07/26 06:08:18;;;;;;;11.38;9.45;;;;;;;28.51;49.32;99179.22;4915926;29;20056;-80
2022/07/26 06:10:46;;;;;;;10.55;9.20;;;;;;;28.39;49.34;99170.31;4915652;29;20135;-82
2022/07/26 06:13:13;;;;;;;12.48;10.00;;;;;;;28.20;49.63;99183.53;4915254;29;20048;-81
2022/07/26 06:15:41;;;;;;;12.73;10.43;;;;;;;28.02;50.01;99180.47;4915456;29;20561;-77
2022/07/26 06:18:09;;;;;;;12.20;9.68;;;;;;;28.13;50.33;99190.34;4915581;29;20075;-80
2022/07/26 06:20:43;;;;;;;11.60;9.75;;;;;;;27.94;50.04;99156.97;4915320;29;20514;-79
2022/07/26 06:23:11;;;;;;;10.70;9.60;;;;;;;27.97;49.84;99163.91;4915309;29;20399;-79
2022/07/26 06:25:38;;;;;;;11.80;10.00;;;;;;;28.09;49.91;99205.00;4915378;29;20063;-79
2022/07/26 06:28:08;;;;;;;11.15;9.73;;;;;;;28.11;49.65;99200.38;4915235;29;20190;-81
2022/07/26 06:30:36;;;;;;;10.48;9.38;;;;;;;28.02;49.54;99195.75;4915268;29;20119;-80
2022/07/26 06:33:03;;;;;;;11.00;9.57;;;;;;;28.17;49.37;99202.56;4915241;29;20064;-79
2022/07/26 06:35:32;;;;;;;10.68;9.45;;;;;;;28.16;49.77;99196.34;4915268;29;20088;-79
2022/07/26 06:38:00;;;;;;;11.10;9.90;;;;;;;28.19;50.13;99197.94;4915324;29;20108;-78
2022/07/26 06:40:26;;;;;;;12.07;9.40;;;;;;;28.24;49.55;99195.72;4915230;29;20506;-78
2022/07/26 06:42:53;;;;;;;11.90;9.82;;;;;;;28.24;49.48;99190.34;4915270;29;20083;-78
2022/07/26 06:45:21;;;;;;;11.88;9.52;;;;;;;28.29;49.40;99188.16;4915081;29;20044;-80
2022/07/26 06:47:48;;;;;;;12.48;10.20;;;;;;;28.41;48.74;99191.66;4918968;29;20059;-79
2022/07/26 06:50:15;;;;;;;12.13;10.05;;;;;;;28.40;48.96;99195.34;4918629;29;20059;-81
2022/07/26 06:52:46;;;;;;;13.48;10.77;;;;;;;28.57;48.45;99194.00;4918983;29;20120;-79
2022/07/26 06:55:15;;;;;;;13.40;10.30;;;;;;;28.47;48.41;99176.91;4918310;29;20127;-80
2022/07/26 06:57:44;;;;;;;11.50;9.63;;;;;;;28.61;48.88;99173.97;4918755;29;20076;-79
2022/07/26 07:00:16;;;;;;;11.43;9.52;;;;;;;28.74;48.30;99173.81;4918745;29;20064;-79
2022/07/26 07:02:43;;;;;;;11.20;10.10;;;;;;;28.76;47.80;99161.06;4920054;29;20518;-82
2022/07/26 07:05:10;;;;;;;10.90;9.80;;;;;;;28.59;47.93;99152.59;4918709;29;20525;-79
2022/07/26 07:07:38;;;;;;;12.35;9.90;;;;;;;28.86;47.93;99169.22;4918674;29;20075;-79
2022/07/26 07:10:08;;;;;;;13.90;10.45;;;;;;;29.10;47.20;99177.09;4918664;29;20040;-79
2022/07/26 07:12:35;;;;;;;12.13;9.90;;;;;;;28.99;46.69;99169.91;4918508;29;20059;-78
2022/07/26 07:15:03;;;;;;;11.27;9.77;;;;;;;28.95;47.71;99166.63;4918152;29;20091;-77
2022/07/26 07:17:30;;;;;;;12.90;10.18;;;;;;;28.97;47.65;99174.56;4918430;29;20085;-79
2022/07/26 07:19:59;;;;;;;11.52;9.30;;;;;;;29.01;46.88;99143.75;4917745;29;20067;-80
2022/07/26 07:22:26;;;;;;;12.13;10.18;;;;;;;29.26;46.57;99172.13;4916993;29;20360;-79
2022/07/26 07:24:53;;;;;;;10.65;9.52;;;;;;;29.37;46.02;99190.03;4918107;29;20062;-79
2022/07/26 07:27:19;;;;;;;11.13;9.20;;;;;;;29.17;46.14;99159.47;4918220;29;20068;-79
2022/07/26 07:29:46;;;;;;;11.07;9.55;;;;;;;29.37;45.76;99192.72;4918538;29;20064;-78
2022/07/26 07:32:14;;;;;;;11.30;9.55;;;;;;;29.29;45.95;99179.09;4920121;29;20119;-79
2022/07/26 07:34:48;;;;;;;10.98;9.90;;;;;;;29.25;46.12;99181.16;4917626;29;20526;-80
2022/07/26 07:37:16;;;;;;;10.60;9.50;;;;;;;29.30;46.02;99170.06;4918189;29;20052;-78
2022/07/26 07:39:45;;;;;;;10.63;9.63;;;;;;;29.35;46.03;99187.47;4917995;29;20052;-79
2022/07/26 07:42:18;;;;;;;14.30;10.40;;;;;;;29.40;45.38;99189.78;4918939;29;20151;-81
2022/07/26 07:44:45;;;;;;;11.23;9.57;;;;;;;29.20;45.26;99145.75;4919733;29;20537;-79
2022/07/26 07:47:13;;;;;;;13.90;9.43;;;;;;;29.34;45.18;99176.84;4919470;29;20527;-80
2022/07/26 07:49:40;;;;;;;10.95;9.65;;;;;;;29.28;45.42;99174.69;4919989;29;20056;-80
2022/07/26 07:52:06;;;;;;;11.25;9.77;;;;;;;29.32;45.23;99177.00;4918622;29;20060;-81
2022/07/26 07:54:33;;;;;;;11.63;9.70;;;;;;;29.05;45.39;99153.25;4918709;29;20052;-81
2022/07/26 07:57:01;;;;;;;13.60;10.80;;;;;;;29.30;45.58;99191.56;4918124;29;20586;-80
2022/07/26 07:59:28;;;;;;;12.32;10.23;;;;;;;29.41;44.90;99194.19;4917655;29;20067;-81
2022/07/26 08:01:55;;;;;;;11.13;10.02;;;;;;;29.60;44.99;99186.22;4918555;29;20083;-81
2022/07/26 08:04:22;;;;;;;11.70;10.05;;;;;;;29.69;44.39;99184.59;4918502;29;20064;-80
2022/07/26 08:06:49;;;;;;;11.07;9.70;;;;;;;29.66;44.37;99192.91;4918437;29;20055;-79
2022/07/26 08:09:18;;;;;;;11.73;10.20;;;;;;;29.52;44.29;99177.97;4918036;29;20104;-82
2022/07/26 08:11:45;;;;;;;11.35;10.05;;;;;;;29.37;45.01;99195.44;4917498;29;20574;-78
2022/07/26 08:14:18;;;;;;;11.15;9.98;;;;;;;29.30;44.81;99195.09;4917875;29;20085;-81
2022/07/26 08:16:45;;;;;;;13.15;10.27;;;;;;;29.44;44.62;99196.59;4918898;29;20163;-80
2022/07/26 08:19:12;;;;;;;11.52;10.30;;;;;;;29.33;44.42;99161.69;4917857;29;20127;-79
2022/07/26 08:21:41;;;;;;;11.05;9.65;;;;;;;29.34;45.05;99184.91;4901321;29;20060;-78
2022/07/26 08:24:09;;;;;;;12.13;10.63;;;;;;;29.08;44.78;99171.84;4918012;29;20056;-80
2022/07/26 08:26:38;;;;;;;10.50;9.40;;;;;;;29.42;45.01;99189.66;4901106;29;20063;-80
2022/07/26 08:29:05;;;;;;;11.88;10.13;;;;;;;29.60;43.87;99199.69;4918067;29;20052;-80
2022/07/26 08:31:31;;;;;;;12.20;10.43;;;;;;;29.86;43.86;99195.72;4916842;29;20507;-80
2022/07/26 08:33:59;;;;;;;11.50;10.40;;;;;;;29.58;44.40;99182.81;4918273;29;20207;-79
2022/07/26 08:36:27;;;;;;;12.05;10.75;;;;;;;29.35;44.45;99200.94;4917835;29;20500;-78
2022/07/26 08:38:59;;;;;;;12.23;10.40;;;;;;;29.29;44.23;99182.63;4917979;29;20064;-80
2022/07/26 08:41:27;;;;;;;13.90;10.93;;;;;;;29.59;43.79;99192.59;4916583;29;20059;-80
2022/07/26 08:43:54;;;;;;;11.32;10.23;;;;;;;29.92;43.32;99190.69;4917702;29;20087;-81
2022/07/26 08:46:23;;;;;;;13.00;10.02;;;;;;;30.15;42.47;99169.78;4917506;29;20052;-78
2022/07/26 08:48:54;;;;;;;14.30;10.90;;;;;;;30.50;42.65;99190.06;4917677;29;20056;-79
2022/07/26 08:51:24;;;;;;;11.75;10.52;;;;;;;30.60;42.42;99181.97;4917501;29;20063;-80
2022/07/26 08:53:53;;;;;;;11.85;10.55;;;;;;;30.47;42.34;99193.00;4917207;29;20480;-79
2022/07/26 08:56:27;;;;;;;12.18;10.75;;;;;;;30.57;42.58;99187.66;4917748;29;20159;-79
2022/07/26 08:58:54;;;;;;;11.98;10.65;;;;;;;30.69;40.68;99194.59;4917489;29;20066;-79
2022/07/26 09:01:21;;;;;;;13.80;10.48;;;;;;;30.68;40.07;99175.91;4917024;29;20060;-78
2022/07/26 09:03:48;;;;;;;11.55;9.90;;;;;;;31.01;39.73;99177.38;4917759;29;20100;-78
2022/07/26 09:06:22;;;;;;;12.50;10.35;;;;;;;31.36;39.23;99186.69;4900249;29;20084;-78
2022/07/26 09:09:09;;;;;;;11.73;10.63;;;;;;;31.53;38.91;99185.13;4917280;29;20102;-80
2022/07/26 09:11:37;;;;;;;13.05;10.60;;;;;;;31.46;38.44;99157.88;4932077;29;20055;-82
2022/07/26 09:14:05;;;;;;;12.43;11.13;;;;;;;31.28;39.24;99190.13;4931502;29;20493;-79
2022/07/26 09:16:32;;;;;;;12.57;11.00;;;;;;;31.02;39.49;99179.06;4900582;29;20075;-79
2022/07/26 09:19:22;;;;;;;13.07;10.75;;;;;;;30.96;39.60;99201.22;4917393;29;20111;-81
2022/07/26 09:21:50;;;;;;;12.18;10.35;;;;;;;30.63;40.47;99203.25;4917487;29;20154;-82
2022/07/26 09:24:39;;;;;;;11.55;10.20;;;;;;;30.15;40.13;99172.47;4917134;29;20549;-82
2022/07/26 09:27:14;;;;;;;11.52;10.27;;;;;;;30.29;40.44;99202.75;4917220;29;20415;-80
2022/07/26 09:29:49;;;;;;;12.30;10.77;;;;;;;30.77;39.86;99210.09;4917121;29;20111;-80
2022/07/26 09:32:21;;;;;;;12.80;10.80;;;;;;;30.80;39.76;99194.50;4917584;29;20111;-81
2022/07/26 09:34:51;;;;;;;14.77;10.43;;;;;;;30.86;39.31;99208.41;4913765;29;20052;-82
2022/07/26 09:37:38;;;;;;;12.27;11.07;;;;;;;30.83;39.92;99193.38;4896735;29;20060;-81
2022/07/26 09:40:08;;;;;;;12.35;11.05;;;;;;;30.31;40.14;99166.63;4913501;29;20089;-80
2022/07/26 09:42:35;;;;;;;12.23;10.85;;;;;;;30.34;40.64;99208.59;4914069;29;20056;-80
2022/07/26 09:45:14;;;;;;;13.00;10.73;;;;;;;30.38;40.46;99210.84;4913719;29;20083;-81
2022/07/26 09:47:42;;;;;;;;;;;;;;;30.47;40.76;99208.34;4914311;29;20396;-80
2022/07/26 09:50:17;;;;;;;11.75;10.55;;;;;;;30.98;39.08;99159.63;4921868;29;19970;-80
2022/07/26 09:53:10;;;;;;;14.85;11.15;;;;;;;31.65;38.35;99202.88;4922835;29;20072;-78
2022/07/26 09:55:43;;;;;;;11.27;10.15;;;;;;;31.81;37.98;99199.56;4913247;29;20443;-80
2022/07/26 09:58:13;;;;;;;12.25;10.50;;;;;;;32.14;37.17;99203.59;4915290;29;20059;-79
2022/07/26 10:00:41;;;;;;;11.98;10.77;;;;;;;32.33;36.15;99194.56;4916014;29;20068;-80
2022/07/26 10:03:08;;;;;;;12.05;10.65;;;;;;;32.60;36.15;99198.25;4916528;29;20055;-82
2022/07/26 10:05:36;;;;;;;11.27;10.18;;;;;;;32.65;35.54;99198.63;4915559;29;20063;-80
2022/07/26 10:08:05;;;;;;;12.30;10.23;;;;;;;32.54;35.20;99190.75;4915541;29;20091;-79
2022/07/26 10:10:44;;;;;;;11.68;10.20;;;;;;;32.36;35.51;99160.97;4915534;29;20131;-80
2022/07/26 10:13:12;;;;;;;14.00;10.50;;;;;;;32.54;35.16;99201.56;4915934;29;20048;-80
2022/07/26 10:15:48;;;;;;;11.77;10.63;;;;;;;32.66;35.16;99197.66;4899111;29;20048;-77
2022/07/26 10:18:37;;;;;;;13.35;10.90;;;;;;;32.98;34.55;99186.31;4916929;29;20147;-81
2022/07/26 10:21:15;;;;;;;11.75;10.52;;;;;;;33.28;33.47;99181.53;4907782;29;20059;-78
2022/07/26 10:24:23;;;;;;;11.18;9.82;;;;;;;33.54;33.01;99181.53;4933990;29;20056;-81
2022/07/26 10:26:50;;;;;;;15.82;12.75;;;;;;;33.82;32.10;99176.00;4930608;29;20060;-80
2022/07/26 10:29:22;;;;;;;21.50;16.48;;;;;;;33.81;32.63;99166.16;4918855;29;20159;-78
2022/07/26 10:31:59;;;;;;;11.93;10.73;;;;;;;33.65;32.66;99167.75;4917538;29;20107;-78
2022/07/26 10:34:33;;;;;;;11.15;10.05;;;;;;;33.00;33.55;99159.97;4934009;29;20083;-78
2022/07/26 10:37:07;;;;;;;12.93;11.23;;;;;;;32.44;33.78;99132.19;4925398;29;20130;-82
2022/07/26 10:39:35;;;;;;;11.32;10.20;;;;;;;32.50;33.27;99127.16;4925008;29;20139;-80
2022/07/26 10:42:09;;;;;;;12.55;10.85;;;;;;;32.84;33.32;99170.63;4927663;29;20060;-78
2022/07/26 10:44:46;;;;;;;11.30;10.10;;;;;;;32.98;33.44;99167.38;4932848;29;20063;-78
2022/07/26 10:47:15;;;;;;;31.38;25.88;;;;;;;32.83;33.69;99148.13;4936152;29;20052;-77
2022/07/26 10:49:53;;;;;;;20.65;17.40;;;;;;;33.00;33.15;99161.81;4935441;29;20149;-80
2022/07/26 10:52:22;;;;;;;14.93;13.23;;;;;;;33.12;33.09;99157.88;4935550;29;20580;-79
2022/07/26 10:54:55;;;;;;;12.85;10.25;;;;;;;32.90;33.35;99153.78;4936030;29;20146;-79
2022/07/26 10:57:34;;;;;;;14.02;10.45;;;;;;;32.55;34.40;99158.16;4937536;29;20056;-79
2022/07/26 11:00:10;;;;;;;13.02;10.93;;;;;;;32.21;34.89;99152.53;4937895;29;20138;-79
2022/07/26 11:02:38;;;;;;;11.45;10.25;;;;;;;31.95;35.08;99150.47;4937770;29;20064;-81
2022/07/26 11:05:12;;;;;;;12.10;9.98;;;;;;;31.88;35.18;99149.38;4938747;29;20060;-80
2022/07/26 11:08:09;;;;;;;12.02;10.23;;;;;;;31.93;34.95;99151.63;4938233;29;20066;-81
2022/07/26 11:10:46;;;;;;;11.82;10.57;;;;;;;32.21;33.63;99155.22;4936839;29;20103;-81
2022/07/26 11:13:24;;;;;;;11.48;10.27;;;;;;;32.39;33.38;99152.53;4938163;29;20143;-79
2022/07/26 11:16:00;;;;;;;10.87;9.83;;;;;;;32.24;32.87;99106.28;4937925;29;20062;-78
2022/07/26 11:18:31;;;;;;;11.20;10.02;;;;;;;32.47;32.25;99135.59;4937694;29;20580;-80
2022/07/26 11:21:11;;;;;;;10.75;9.75;;;;;;;32.48;31.79;99126.47;4937904;29;20158;-78
2022/07/26 11:23:45;;;;;;;11.50;10.00;;;;;;;32.53;32.52;99127.75;4937795;29;20506;-78
2022/07/26 11:26:17;;;;;;;11.82;10.60;;;;;;;32.48;32.84;99135.41;4937839;29;20051;-80
2022/07/26 11:28:54;;;;;;;10.63;9.52;;;;;;;32.43;32.83;99129.63;4937473;29;20058;-82